sensor_id;sensor_type;location;lat;lon;timestamp;P1;durP1;ratioP1;P2;durP2;ratioP2
16101;SDS011;56411;52.964;10.540;2023-04-24T00:01:06;7.40;;;4.03;;
16101;SDS011;56411;52.964;10.540;2023-04-24T00:03:34;8.43;;;4.05;;
16101;SDS011;56411;52.964;10.540;2023-04-24T00:06:02;7.40;;;4.03;;
16101;SDS011;56411;52.964;10.540;2023-04-24T00:08:30;9.27;;;4.38;;
16101;SDS011;56411;52.964;10.540;2023-04-24T00:10:57;8.30;;;4.35;;
16101;SDS011;56411;52.964;10.540;2023-04-24T00:13:24;8.65;;;4.63;;
16101;SDS011;56411;52.964;10.540;2023-04-24T00:15:53;9.48;;;4.10;;
16101;SDS011;56411;52.964;10.540;2023-04-24T00:18:22;7.15;;;3.80;;
16101;SDS011;56411;52.964;10.540;2023-04-24T00:20:49;6.80;;;3.60;;
16101;SDS011;56411;52.964;10.540;2023-04-24T00:23:16;8.37;;;3.87;;
16101;SDS011;56411;52.964;10.540;2023-04-24T00:25:43;6.28;;;3.63;;
16101;SDS011;56411;52.964;10.540;2023-04-24T00:28:10;6.03;;;3.70;;
16101;SDS011;56411;52.964;10.540;2023-04-24T00:30:37;6.50;;;3.50;;
16101;SDS011;56411;52.964;10.540;2023-04-24T00:33:04;7.00;;;3.73;;
16101;SDS011;56411;52.964;10.540;2023-04-24T00:35:33;7.78;;;3.83;;
16101;SDS011;56411;52.964;10.540;2023-04-24T00:38:00;7.03;;;3.70;;
16101;SDS011;56411;52.964;10.540;2023-04-24T00:40:27;6.63;;;3.70;;
16101;SDS011;56411;52.964;10.540;2023-04-24T00:42:55;5.05;;;3.10;;
16101;SDS011;56411;52.964;10.540;2023-04-24T00:45:22;7.47;;;3.60;;
16101;SDS011;56411;52.964;10.540;2023-04-24T00:47:49;6.27;;;3.40;;
16101;SDS011;56411;52.964;10.540;2023-04-24T00:50:19;6.47;;;3.50;;
16101;SDS011;56411;52.964;10.540;2023-04-24T00:52:49;7.60;;;3.60;;
16101;SDS011;56411;52.964;10.540;2023-04-24T00:55:16;6.80;;;3.33;;
16101;SDS011;56411;52.964;10.540;2023-04-24T00:57:44;6.90;;;3.47;;
16101;SDS011;56411;52.964;10.540;2023-04-24T01:00:12;7.63;;;3.67;;
16101;SDS011;56411;52.964;10.540;2023-04-24T01:02:41;5.63;;;3.37;;
16101;SDS011;56411;52.964;10.540;2023-04-24T01:05:10;5.87;;;3.40;;
16101;SDS011;56411;52.964;10.540;2023-04-24T01:07:38;5.55;;;3.20;;
16101;SDS011;56411;52.964;10.540;2023-04-24T01:10:10;7.07;;;3.40;;
16101;SDS011;56411;52.964;10.540;2023-04-24T01:12:38;6.53;;;3.17;;
16101;SDS011;56411;52.964;10.540;2023-04-24T01:15:06;6.67;;;3.53;;
16101;SDS011;56411;52.964;10.540;2023-04-24T01:17:34;7.00;;;3.63;;
16101;SDS011;56411;52.964;10.540;2023-04-24T01:20:03;7.05;;;3.97;;
16101;SDS011;56411;52.964;10.540;2023-04-24T01:22:33;7.40;;;3.67;;
16101;SDS011;56411;52.964;10.540;2023-04-24T01:25:01;7.07;;;3.77;;
16101;SDS011;56411;52.964;10.540;2023-04-24T01:27:29;8.52;;;3.90;;
16101;SDS011;56411;52.964;10.540;2023-04-24T01:29:56;6.93;;;3.30;;
16101;SDS011;56411;52.964;10.540;2023-04-24T01:32:23;6.47;;;3.70;;
16101;SDS011;56411;52.964;10.540;2023-04-24T01:34:51;7.18;;;3.50;;
16101;SDS011;56411;52.964;10.540;2023-04-24T01:37:18;6.43;;;3.75;;
16101;SDS011;56411;52.964;10.540;2023-04-24T01:39:47;6.35;;;3.50;;
16101;SDS011;56411;52.964;10.540;2023-04-24T01:42:14;7.83;;;3.60;;
16101;SDS011;56411;52.964;10.540;2023-04-24T01:44:42;7.23;;;3.70;;
16101;SDS011;56411;52.964;10.540;2023-04-24T01:47:09;7.22;;;3.65;;
16101;SDS011;56411;52.964;10.540;2023-04-24T01:49:40;6.53;;;3.60;;
16101;SDS011;56411;52.964;10.540;2023-04-24T01:52:07;6.20;;;3.53;;
16101;SDS011;56411;52.964;10.540;2023-04-24T01:54:35;5.90;;;3.30;;
16101;SDS011;56411;52.964;10.540;2023-04-24T01:57:03;8.00;;;3.47;;
16101;SDS011;56411;52.964;10.540;2023-04-24T01:59:30;5.70;;;3.40;;
16101;SDS011;56411;52.964;10.540;2023-04-24T02:02:01;6.47;;;3.30;;
16101;SDS011;56411;52.964;10.540;2023-04-24T02:04:28;7.63;;;3.47;;
16101;SDS011;56411;52.964;10.540;2023-04-24T02:06:55;6.37;;;3.40;;
16101;SDS011;56411;52.964;10.540;2023-04-24T02:09:22;6.67;;;3.37;;
16101;SDS011;56411;52.964;10.540;2023-04-24T02:11:49;6.00;;;3.10;;
16101;SDS011;56411;52.964;10.540;2023-04-24T02:14:18;8.00;;;3.30;;
16101;SDS011;56411;52.964;10.540;2023-04-24T02:16:45;9.30;;;3.57;;
16101;SDS011;56411;52.964;10.540;2023-04-24T02:19:12;6.33;;;3.40;;
16101;SDS011;56411;52.964;10.540;2023-04-24T02:21:39;7.63;;;3.30;;
16101;SDS011;56411;52.964;10.540;2023-04-24T02:24:06;8.00;;;3.80;;
16101;SDS011;56411;52.964;10.540;2023-04-24T02:26:33;6.07;;;2.80;;
16101;SDS011;56411;52.964;10.540;2023-04-24T02:29:00;6.93;;;3.10;;
16101;SDS011;56411;52.964;10.540;2023-04-24T02:31:30;6.30;;;2.70;;
16101;SDS011;56411;52.964;10.540;2023-04-24T02:33:57;6.07;;;2.93;;
16101;SDS011;56411;52.964;10.540;2023-04-24T02:36:24;5.63;;;3.00;;
16101;SDS011;56411;52.964;10.540;2023-04-24T02:38:51;6.53;;;3.00;;
16101;SDS011;56411;52.964;10.540;2023-04-24T02:41:18;6.00;;;2.90;;
16101;SDS011;56411;52.964;10.540;2023-04-24T02:43:45;4.83;;;2.70;;
16101;SDS011;56411;52.964;10.540;2023-04-24T02:46:12;4.97;;;2.60;;
16101;SDS011;56411;52.964;10.540;2023-04-24T02:48:41;4.53;;;2.60;;
16101;SDS011;56411;52.964;10.540;2023-04-24T02:51:08;5.17;;;2.70;;
16101;SDS011;56411;52.964;10.540;2023-04-24T02:53:35;3.87;;;2.50;;
16101;SDS011;56411;52.964;10.540;2023-04-24T02:56:02;4.80;;;3.27;;
16101;SDS011;56411;52.964;10.540;2023-04-24T02:58:29;3.47;;;2.43;;
16101;SDS011;56411;52.964;10.540;2023-04-24T03:00:56;4.63;;;2.40;;
16101;SDS011;56411;52.964;10.540;2023-04-24T03:03:23;4.13;;;2.47;;
16101;SDS011;56411;52.964;10.540;2023-04-24T03:05:52;3.90;;;2.33;;
16101;SDS011;56411;52.964;10.540;2023-04-24T03:08:20;3.47;;;2.40;;
16101;SDS011;56411;52.964;10.540;2023-04-24T03:10:47;3.43;;;2.40;;
16101;SDS011;56411;52.964;10.540;2023-04-24T03:13:14;4.57;;;2.50;;
16101;SDS011;56411;52.964;10.540;2023-04-24T03:15:42;4.10;;;2.50;;
16101;SDS011;56411;52.964;10.540;2023-04-24T03:18:10;7.20;;;3.20;;
16101;SDS011;56411;52.964;10.540;2023-04-24T03:20:37;5.40;;;3.00;;
16101;SDS011;56411;52.964;10.540;2023-04-24T03:23:06;5.00;;;2.70;;
16101;SDS011;56411;52.964;10.540;2023-04-24T03:25:33;5.53;;;2.73;;
16101;SDS011;56411;52.964;10.540;2023-04-24T03:28:00;5.30;;;2.67;;
16101;SDS011;56411;52.964;10.540;2023-04-24T03:30:27;6.50;;;3.10;;
16101;SDS011;56411;52.964;10.540;2023-04-24T03:32:54;6.57;;;2.73;;
16101;SDS011;56411;52.964;10.540;2023-04-24T03:35:22;5.67;;;3.00;;
16101;SDS011;56411;52.964;10.540;2023-04-24T03:37:49;5.27;;;2.83;;
16101;SDS011;56411;52.964;10.540;2023-04-24T03:40:17;6.50;;;2.67;;
16101;SDS011;56411;52.964;10.540;2023-04-24T03:42:44;6.07;;;3.10;;
16101;SDS011;56411;52.964;10.540;2023-04-24T03:45:11;4.70;;;2.80;;
16101;SDS011;56411;52.964;10.540;2023-04-24T03:47:38;5.87;;;2.90;;
16101;SDS011;56411;52.964;10.540;2023-04-24T03:50:06;5.97;;;2.90;;
16101;SDS011;56411;52.964;10.540;2023-04-24T03:52:34;5.13;;;3.00;;
16101;SDS011;56411;52.964;10.540;2023-04-24T03:55:01;5.30;;;3.37;;
16101;SDS011;56411;52.964;10.540;2023-04-24T03:57:29;6.30;;;3.17;;
16101;SDS011;56411;52.964;10.540;2023-04-24T03:59:56;6.17;;;2.80;;
16101;SDS011;56411;52.964;10.540;2023-04-24T04:02:23;6.40;;;3.10;;
16101;SDS011;56411;52.964;10.540;2023-04-24T04:04:50;6.80;;;2.80;;
16101;SDS011;56411;52.964;10.540;2023-04-24T04:07:17;5.23;;;2.90;;
16101;SDS011;56411;52.964;10.540;2023-04-24T04:09:44;5.07;;;2.77;;
16101;SDS011;56411;52.964;10.540;2023-04-24T04:12:12;4.87;;;2.77;;
16101;SDS011;56411;52.964;10.540;2023-04-24T04:14:41;6.10;;;3.20;;
16101;SDS011;56411;52.964;10.540;2023-04-24T04:17:08;5.83;;;3.30;;
16101;SDS011;56411;52.964;10.540;2023-04-24T04:19:35;5.97;;;3.07;;
16101;SDS011;56411;52.964;10.540;2023-04-24T04:22:02;6.07;;;2.93;;
16101;SDS011;56411;52.964;10.540;2023-04-24T04:24:29;5.30;;;3.00;;
16101;SDS011;56411;52.964;10.540;2023-04-24T04:26:56;5.20;;;2.67;;
16101;SDS011;56411;52.964;10.540;2023-04-24T04:29:23;4.90;;;3.00;;
16101;SDS011;56411;52.964;10.540;2023-04-24T04:31:52;5.43;;;3.07;;
16101;SDS011;56411;52.964;10.540;2023-04-24T04:34:20;5.43;;;3.00;;
16101;SDS011;56411;52.964;10.540;2023-04-24T04:36:47;7.10;;;3.33;;
16101;SDS011;56411;52.964;10.540;2023-04-24T04:39:15;6.03;;;3.10;;
16101;SDS011;56411;52.964;10.540;2023-04-24T04:41:43;5.93;;;3.20;;
16101;SDS011;56411;52.964;10.540;2023-04-24T04:44:11;5.30;;;3.07;;
16101;SDS011;56411;52.964;10.540;2023-04-24T04:46:39;7.10;;;3.30;;
16101;SDS011;56411;52.964;10.540;2023-04-24T04:49:10;6.43;;;3.20;;
16101;SDS011;56411;52.964;10.540;2023-04-24T04:51:38;6.43;;;3.10;;
16101;SDS011;56411;52.964;10.540;2023-04-24T04:54:05;4.60;;;2.80;;
16101;SDS011;56411;52.964;10.540;2023-04-24T04:56:32;5.80;;;3.20;;
16101;SDS011;56411;52.964;10.540;2023-04-24T04:58:59;4.63;;;2.60;;
16101;SDS011;56411;52.964;10.540;2023-04-24T05:01:26;4.90;;;2.47;;
16101;SDS011;56411;52.964;10.540;2023-04-24T05:03:53;4.57;;;2.70;;
16101;SDS011;56411;52.964;10.540;2023-04-24T05:06:22;5.30;;;2.70;;
16101;SDS011;56411;52.964;10.540;2023-04-24T05:08:49;4.30;;;2.53;;
16101;SDS011;56411;52.964;10.540;2023-04-24T05:11:16;4.53;;;2.70;;
16101;SDS011;56411;52.964;10.540;2023-04-24T05:13:43;5.93;;;2.87;;
16101;SDS011;56411;52.964;10.540;2023-04-24T05:16:10;4.27;;;2.57;;
16101;SDS011;56411;52.964;10.540;2023-04-24T05:18:37;6.10;;;3.07;;
16101;SDS011;56411;52.964;10.540;2023-04-24T05:21:04;4.73;;;2.80;;
16101;SDS011;56411;52.964;10.540;2023-04-24T05:23:32;5.13;;;2.50;;
16101;SDS011;56411;52.964;10.540;2023-04-24T05:26:00;4.83;;;2.73;;
16101;SDS011;56411;52.964;10.540;2023-04-24T05:28:27;5.43;;;2.80;;
16101;SDS011;56411;52.964;10.540;2023-04-24T05:30:54;5.80;;;2.80;;
16101;SDS011;56411;52.964;10.540;2023-04-24T05:33:22;5.13;;;2.77;;
16101;SDS011;56411;52.964;10.540;2023-04-24T05:35:49;5.40;;;2.93;;
16101;SDS011;56411;52.964;10.540;2023-04-24T05:38:16;4.80;;;2.57;;
16101;SDS011;56411;52.964;10.540;2023-04-24T05:40:46;4.80;;;2.60;;
16101;SDS011;56411;52.964;10.540;2023-04-24T05:43:13;6.10;;;2.60;;
16101;SDS011;56411;52.964;10.540;2023-04-24T05:45:40;2.90;;;2.30;;
16101;SDS011;56411;52.964;10.540;2023-04-24T05:48:07;4.17;;;2.50;;
16101;SDS011;56411;52.964;10.540;2023-04-24T05:50:34;6.13;;;2.50;;
16101;SDS011;56411;52.964;10.540;2023-04-24T05:53:03;4.90;;;2.40;;
16101;SDS011;56411;52.964;10.540;2023-04-24T05:55:32;5.10;;;2.60;;
16101;SDS011;56411;52.964;10.540;2023-04-24T05:58:00;5.53;;;2.53;;
16101;SDS011;56411;52.964;10.540;2023-04-24T06:00:27;5.30;;;2.57;;
16101;SDS011;56411;52.964;10.540;2023-04-24T06:02:54;4.30;;;2.70;;
16101;SDS011;56411;52.964;10.540;2023-04-24T06:05:21;6.33;;;3.00;;
16101;SDS011;56411;52.964;10.540;2023-04-24T06:07:48;7.83;;;3.53;;
16101;SDS011;56411;52.964;10.540;2023-04-24T06:10:15;4.73;;;2.70;;
16101;SDS011;56411;52.964;10.540;2023-04-24T06:12:43;5.23;;;2.80;;
16101;SDS011;56411;52.964;10.540;2023-04-24T06:15:11;5.73;;;2.83;;
16101;SDS011;56411;52.964;10.540;2023-04-24T06:17:39;8.70;;;3.20;;
16101;SDS011;56411;52.964;10.540;2023-04-24T06:20:06;6.60;;;3.40;;
16101;SDS011;56411;52.964;10.540;2023-04-24T06:22:34;5.73;;;2.90;;
16101;SDS011;56411;52.964;10.540;2023-04-24T06:25:01;3.50;;;2.57;;
16101;SDS011;56411;52.964;10.540;2023-04-24T06:27:29;6.17;;;3.30;;
16101;SDS011;56411;52.964;10.540;2023-04-24T06:29:56;5.07;;;2.73;;
16101;SDS011;56411;52.964;10.540;2023-04-24T06:32:25;4.90;;;2.90;;
16101;SDS011;56411;52.964;10.540;2023-04-24T06:34:52;4.37;;;2.83;;
16101;SDS011;56411;52.964;10.540;2023-04-24T06:37:19;5.77;;;2.83;;
16101;SDS011;56411;52.964;10.540;2023-04-24T06:39:46;5.57;;;2.90;;
16101;SDS011;56411;52.964;10.540;2023-04-24T06:42:13;5.20;;;2.70;;
16101;SDS011;56411;52.964;10.540;2023-04-24T06:44:41;5.30;;;2.60;;
16101;SDS011;56411;52.964;10.540;2023-04-24T06:47:08;5.57;;;2.90;;
16101;SDS011;56411;52.964;10.540;2023-04-24T06:49:37;5.00;;;2.47;;
16101;SDS011;56411;52.964;10.540;2023-04-24T06:52:04;5.33;;;2.37;;
16101;SDS011;56411;52.964;10.540;2023-04-24T06:54:31;3.77;;;2.33;;
16101;SDS011;56411;52.964;10.540;2023-04-24T06:56:58;5.70;;;2.60;;
16101;SDS011;56411;52.964;10.540;2023-04-24T06:59:27;3.90;;;2.30;;
16101;SDS011;56411;52.964;10.540;2023-04-24T07:01:54;4.60;;;2.60;;
16101;SDS011;56411;52.964;10.540;2023-04-24T07:04:22;6.00;;;2.70;;
16101;SDS011;56411;52.964;10.540;2023-04-24T07:06:51;5.63;;;2.60;;
16101;SDS011;56411;52.964;10.540;2023-04-24T07:09:20;5.13;;;2.38;;
16101;SDS011;56411;52.964;10.540;2023-04-24T07:11:48;4.63;;;2.53;;
16101;SDS011;56411;52.964;10.540;2023-04-24T07:14:18;2.33;;;1.90;;
16101;SDS011;56411;52.964;10.540;2023-04-24T07:16:45;4.93;;;2.15;;
16101;SDS011;56411;52.964;10.540;2023-04-24T07:19:12;4.53;;;2.10;;
16101;SDS011;56411;52.964;10.540;2023-04-24T07:21:40;5.07;;;2.08;;
16101;SDS011;56411;52.964;10.540;2023-04-24T07:24:09;2.45;;;1.80;;
16101;SDS011;56411;52.964;10.540;2023-04-24T07:26:38;3.55;;;1.90;;
16101;SDS011;56411;52.964;10.540;2023-04-24T07:29:05;2.22;;;1.85;;
16101;SDS011;56411;52.964;10.540;2023-04-24T07:31:32;2.38;;;1.80;;
16101;SDS011;56411;52.964;10.540;2023-04-24T07:33:59;3.90;;;2.00;;
16101;SDS011;56411;52.964;10.540;2023-04-24T07:36:26;2.03;;;1.80;;
16101;SDS011;56411;52.964;10.540;2023-04-24T07:38:53;2.72;;;1.95;;
16101;SDS011;56411;52.964;10.540;2023-04-24T07:41:23;4.07;;;2.10;;
16101;SDS011;56411;52.964;10.540;2023-04-24T07:43:52;3.65;;;2.10;;
16101;SDS011;56411;52.964;10.540;2023-04-24T07:46:20;3.10;;;2.00;;
16101;SDS011;56411;52.964;10.540;2023-04-24T07:48:48;6.30;;;2.38;;
16101;SDS011;56411;52.964;10.540;2023-04-24T07:51:15;3.03;;;1.90;;
16101;SDS011;56411;52.964;10.540;2023-04-24T07:53:42;3.80;;;2.22;;
16101;SDS011;56411;52.964;10.540;2023-04-24T07:56:10;3.28;;;2.20;;
16101;SDS011;56411;52.964;10.540;2023-04-24T07:58:38;3.90;;;2.10;;
16101;SDS011;56411;52.964;10.540;2023-04-24T08:01:06;3.00;;;2.05;;
16101;SDS011;56411;52.964;10.540;2023-04-24T08:03:33;3.47;;;2.13;;
16101;SDS011;56411;52.964;10.540;2023-04-24T08:06:00;2.78;;;2.10;;
16101;SDS011;56411;52.964;10.540;2023-04-24T08:08:27;3.25;;;2.30;;
16101;SDS011;56411;52.964;10.540;2023-04-24T08:10:54;3.83;;;1.90;;
16101;SDS011;56411;52.964;10.540;2023-04-24T08:13:21;3.10;;;2.20;;
16101;SDS011;56411;52.964;10.540;2023-04-24T08:15:50;4.28;;;2.13;;
16101;SDS011;56411;52.964;10.540;2023-04-24T08:18:17;4.03;;;2.30;;
16101;SDS011;56411;52.964;10.540;2023-04-24T08:20:44;3.30;;;2.17;;
16101;SDS011;56411;52.964;10.540;2023-04-24T08:23:11;4.95;;;2.40;;
16101;SDS011;56411;52.964;10.540;2023-04-24T08:25:38;3.67;;;2.00;;
16101;SDS011;56411;52.964;10.540;2023-04-24T08:28:05;3.83;;;2.10;;
16101;SDS011;56411;52.964;10.540;2023-04-24T08:30:34;3.80;;;2.20;;
16101;SDS011;56411;52.964;10.540;2023-04-24T08:33:03;3.00;;;2.10;;
16101;SDS011;56411;52.964;10.540;2023-04-24T08:35:30;4.40;;;2.60;;
16101;SDS011;56411;52.964;10.540;2023-04-24T08:37:57;5.80;;;3.27;;
16101;SDS011;56411;52.964;10.540;2023-04-24T08:40:27;8.10;;;3.90;;
16101;SDS011;56411;52.964;10.540;2023-04-24T08:42:55;7.43;;;3.87;;
16101;SDS011;56411;52.964;10.540;2023-04-24T08:45:22;6.57;;;3.73;;
16101;SDS011;56411;52.964;10.540;2023-04-24T08:47:51;6.70;;;3.83;;
16101;SDS011;56411;52.964;10.540;2023-04-24T08:50:21;7.83;;;4.10;;
16101;SDS011;56411;52.964;10.540;2023-04-24T08:52:49;7.90;;;4.00;;
16101;SDS011;56411;52.964;10.540;2023-04-24T08:55:18;6.37;;;3.67;;
16101;SDS011;56411;52.964;10.540;2023-04-24T08:57:49;8.17;;;4.40;;
16101;SDS011;56411;52.964;10.540;2023-04-24T09:00:18;8.50;;;4.07;;
16101;SDS011;56411;52.964;10.540;2023-04-24T09:02:47;7.30;;;4.30;;
16101;SDS011;56411;52.964;10.540;2023-04-24T09:05:16;7.50;;;4.37;;
16101;SDS011;56411;52.964;10.540;2023-04-24T09:07:47;9.83;;;4.60;;
16101;SDS011;56411;52.964;10.540;2023-04-24T09:10:19;9.53;;;5.00;;
16101;SDS011;56411;52.964;10.540;2023-04-24T09:12:47;9.73;;;5.00;;
16101;SDS011;56411;52.964;10.540;2023-04-24T09:15:16;9.93;;;5.03;;
16101;SDS011;56411;52.964;10.540;2023-04-24T09:17:43;9.07;;;4.68;;
16101;SDS011;56411;52.964;10.540;2023-04-24T09:20:10;11.25;;;5.38;;
16101;SDS011;56411;52.964;10.540;2023-04-24T09:22:37;9.23;;;5.00;;
16101;SDS011;56411;52.964;10.540;2023-04-24T09:25:07;10.10;;;4.97;;
16101;SDS011;56411;52.964;10.540;2023-04-24T09:27:37;9.40;;;5.10;;
16101;SDS011;56411;52.964;10.540;2023-04-24T09:30:09;10.43;;;5.23;;
16101;SDS011;56411;52.964;10.540;2023-04-24T09:32:36;10.10;;;5.43;;
16101;SDS011;56411;52.964;10.540;2023-04-24T09:35:08;10.88;;;5.82;;
16101;SDS011;56411;52.964;10.540;2023-04-24T09:37:36;11.05;;;6.00;;
16101;SDS011;56411;52.964;10.540;2023-04-24T09:40:09;11.53;;;5.67;;
16101;SDS011;56411;52.964;10.540;2023-04-24T09:42:37;10.43;;;5.80;;
16101;SDS011;56411;52.964;10.540;2023-04-24T09:45:08;10.55;;;5.63;;
16101;SDS011;56411;52.964;10.540;2023-04-24T09:47:36;10.25;;;4.90;;
16101;SDS011;56411;52.964;10.540;2023-04-24T09:50:13;10.65;;;5.13;;
16101;SDS011;56411;52.964;10.540;2023-04-24T09:52:45;10.27;;;5.73;;
16101;SDS011;56411;52.964;10.540;2023-04-24T09:55:16;11.03;;;5.23;;
16101;SDS011;56411;52.964;10.540;2023-04-24T09:57:48;9.97;;;4.80;;
16101;SDS011;56411;52.964;10.540;2023-04-24T10:00:21;8.63;;;4.60;;
16101;SDS011;56411;52.964;10.540;2023-04-24T10:02:50;10.63;;;5.10;;
16101;SDS011;56411;52.964;10.540;2023-04-24T10:05:22;10.13;;;4.90;;
16101;SDS011;56411;52.964;10.540;2023-04-24T10:07:50;16.20;;;6.00;;
16101;SDS011;56411;52.964;10.540;2023-04-24T10:10:19;10.20;;;5.20;;
16101;SDS011;56411;52.964;10.540;2023-04-24T10:12:46;11.27;;;5.90;;
16101;SDS011;56411;52.964;10.540;2023-04-24T10:15:14;10.70;;;5.60;;
16101;SDS011;56411;52.964;10.540;2023-04-24T10:17:45;10.88;;;5.57;;
16101;SDS011;56411;52.964;10.540;2023-04-24T10:20:17;11.63;;;5.28;;
16101;SDS011;56411;52.964;10.540;2023-04-24T10:22:47;11.02;;;5.25;;
16101;SDS011;56411;52.964;10.540;2023-04-24T10:25:19;10.93;;;5.15;;
16101;SDS011;56411;52.964;10.540;2023-04-24T10:27:48;10.38;;;5.30;;
16101;SDS011;56411;52.964;10.540;2023-04-24T10:30:16;10.05;;;5.72;;
16101;SDS011;56411;52.964;10.540;2023-04-24T10:32:44;11.10;;;5.15;;
16101;SDS011;56411;52.964;10.540;2023-04-24T10:35:11;9.10;;;5.05;;
16101;SDS011;56411;52.964;10.540;2023-04-24T10:37:41;11.02;;;5.40;;
16101;SDS011;56411;52.964;10.540;2023-04-24T10:40:11;10.35;;;5.70;;
16101;SDS011;56411;52.964;10.540;2023-04-24T10:42:44;11.00;;;6.07;;
16101;SDS011;56411;52.964;10.540;2023-04-24T10:45:16;9.90;;;5.72;;
16101;SDS011;56411;52.964;10.540;2023-04-24T10:47:52;10.35;;;5.78;;
16101;SDS011;56411;52.964;10.540;2023-04-24T10:50:23;10.75;;;5.88;;
16101;SDS011;56411;52.964;10.540;2023-04-24T10:52:52;11.18;;;5.78;;
16101;SDS011;56411;52.964;10.540;2023-04-24T10:55:40;10.95;;;6.20;;
16101;SDS011;56411;52.964;10.540;2023-04-24T10:58:10;11.02;;;5.97;;
16101;SDS011;56411;52.964;10.540;2023-04-24T11:00:38;9.60;;;5.65;;
16101;SDS011;56411;52.964;10.540;2023-04-24T11:03:06;10.45;;;6.10;;
16101;SDS011;56411;52.964;10.540;2023-04-24T11:05:49;11.30;;;5.82;;
16101;SDS011;56411;52.964;10.540;2023-04-24T11:08:23;14.70;;;6.00;;
16101;SDS011;56411;52.964;10.540;2023-04-24T11:11:02;9.45;;;5.13;;
16101;SDS011;56411;52.964;10.540;2023-04-24T11:16:30;9.15;;;5.55;;
16101;SDS011;56411;52.964;10.540;2023-04-24T11:19:02;10.52;;;5.50;;
16101;SDS011;56411;52.964;10.540;2023-04-24T11:21:31;9.32;;;5.05;;
16101;SDS011;56411;52.964;10.540;2023-04-24T11:24:27;7.22;;;3.78;;
16101;SDS011;56411;52.964;10.540;2023-04-24T11:26:57;7.05;;;3.90;;
16101;SDS011;56411;52.964;10.540;2023-04-24T11:32:27;7.35;;;3.72;;
16101;SDS011;56411;52.964;10.540;2023-04-24T11:34:56;6.63;;;3.70;;
16101;SDS011;56411;52.964;10.540;2023-04-24T11:37:24;7.65;;;3.92;;
16101;SDS011;56411;52.964;10.540;2023-04-24T11:39:54;5.85;;;3.45;;
16101;SDS011;56411;52.964;10.540;2023-04-24T11:42:22;7.00;;;3.70;;
16101;SDS011;56411;52.964;10.540;2023-04-24T11:44:51;6.32;;;3.40;;
16101;SDS011;56411;52.964;10.540;2023-04-24T11:47:28;6.77;;;3.83;;
16101;SDS011;56411;52.964;10.540;2023-04-24T11:49:56;5.70;;;3.63;;
16101;SDS011;56411;52.964;10.540;2023-04-24T11:52:24;8.05;;;4.20;;
16101;SDS011;56411;52.964;10.540;2023-04-24T11:54:51;6.85;;;3.90;;
16101;SDS011;56411;52.964;10.540;2023-04-24T11:57:19;8.18;;;4.32;;
16101;SDS011;56411;52.964;10.540;2023-04-24T11:59:46;8.27;;;4.28;;
16101;SDS011;56411;52.964;10.540;2023-04-24T12:02:20;8.75;;;4.18;;
16101;SDS011;56411;52.964;10.540;2023-04-24T12:04:49;8.52;;;4.00;;
16101;SDS011;56411;52.964;10.540;2023-04-24T12:07:16;7.17;;;3.83;;
16101;SDS011;56411;52.964;10.540;2023-04-24T12:09:44;8.07;;;3.75;;
16101;SDS011;56411;52.964;10.540;2023-04-24T12:12:12;7.00;;;3.70;;
16101;SDS011;56411;52.964;10.540;2023-04-24T12:14:42;6.93;;;4.00;;
16101;SDS011;56411;52.964;10.540;2023-04-24T12:17:16;6.97;;;3.50;;
16101;SDS011;56411;52.964;10.540;2023-04-24T12:19:46;7.00;;;3.70;;
16101;SDS011;56411;52.964;10.540;2023-04-24T12:22:15;6.65;;;3.58;;
16101;SDS011;56411;52.964;10.540;2023-04-24T12:24:55;5.80;;;3.30;;
16101;SDS011;56411;52.964;10.540;2023-04-24T12:27:26;6.63;;;3.53;;
16101;SDS011;56411;52.964;10.540;2023-04-24T12:29:56;7.70;;;3.90;;
16101;SDS011;56411;52.964;10.540;2023-04-24T12:32:23;8.13;;;3.92;;
16101;SDS011;56411;52.964;10.540;2023-04-24T12:34:51;8.03;;;3.90;;
16101;SDS011;56411;52.964;10.540;2023-04-24T12:37:20;8.10;;;3.70;;
16101;SDS011;56411;52.964;10.540;2023-04-24T12:39:58;6.35;;;3.67;;
16101;SDS011;56411;52.964;10.540;2023-04-24T12:42:29;6.40;;;3.53;;
16101;SDS011;56411;52.964;10.540;2023-04-24T12:44:59;8.20;;;3.67;;
16101;SDS011;56411;52.964;10.540;2023-04-24T12:47:27;5.83;;;3.50;;
16101;SDS011;56411;52.964;10.540;2023-04-24T12:49:57;7.23;;;3.70;;
16101;SDS011;56411;52.964;10.540;2023-04-24T12:52:26;6.97;;;3.77;;
16101;SDS011;56411;52.964;10.540;2023-04-24T12:54:54;6.72;;;3.42;;
16101;SDS011;56411;52.964;10.540;2023-04-24T12:57:24;7.30;;;3.40;;
16101;SDS011;56411;52.964;10.540;2023-04-24T12:59:53;6.53;;;3.50;;
16101;SDS011;56411;52.964;10.540;2023-04-24T13:02:21;6.70;;;3.30;;
16101;SDS011;56411;52.964;10.540;2023-04-24T13:04:48;6.80;;;3.30;;
16101;SDS011;56411;52.964;10.540;2023-04-24T13:07:15;7.32;;;3.35;;
16101;SDS011;56411;52.964;10.540;2023-04-24T13:09:44;6.20;;;2.80;;
16101;SDS011;56411;52.964;10.540;2023-04-24T13:12:11;6.00;;;3.10;;
16101;SDS011;56411;52.964;10.540;2023-04-24T13:14:39;6.65;;;3.50;;
16101;SDS011;56411;52.964;10.540;2023-04-24T13:17:06;6.50;;;3.40;;
16101;SDS011;56411;52.964;10.540;2023-04-24T13:19:37;7.70;;;3.47;;
16101;SDS011;56411;52.964;10.540;2023-04-24T13:22:05;6.55;;;3.40;;
16101;SDS011;56411;52.964;10.540;2023-04-24T13:24:32;6.43;;;3.47;;
16101;SDS011;56411;52.964;10.540;2023-04-24T13:27:01;7.28;;;3.40;;
16101;SDS011;56411;52.964;10.540;2023-04-24T13:29:28;5.93;;;3.38;;
16101;SDS011;56411;52.964;10.540;2023-04-24T13:31:55;5.70;;;3.40;;
16101;SDS011;56411;52.964;10.540;2023-04-24T13:34:22;5.78;;;3.17;;
16101;SDS011;56411;52.964;10.540;2023-04-24T13:36:50;7.18;;;3.30;;
16101;SDS011;56411;52.964;10.540;2023-04-24T13:39:17;6.25;;;3.50;;
16101;SDS011;56411;52.964;10.540;2023-04-24T13:41:44;5.78;;;3.40;;
16101;SDS011;56411;52.964;10.540;2023-04-24T13:44:14;4.68;;;2.92;;
16101;SDS011;56411;52.964;10.540;2023-04-24T13:46:41;3.88;;;2.80;;
16101;SDS011;56411;52.964;10.540;2023-04-24T13:49:10;3.45;;;2.38;;
16101;SDS011;56411;52.964;10.540;2023-04-24T13:51:37;4.35;;;2.50;;
16101;SDS011;56411;52.964;10.540;2023-04-24T13:54:05;4.28;;;2.60;;
16101;SDS011;56411;52.964;10.540;2023-04-24T13:56:32;4.93;;;2.60;;
16101;SDS011;56411;52.964;10.540;2023-04-24T13:58:59;4.10;;;2.60;;
16101;SDS011;56411;52.964;10.540;2023-04-24T14:01:28;3.13;;;2.50;;
16101;SDS011;56411;52.964;10.540;2023-04-24T14:03:55;3.60;;;2.50;;
16101;SDS011;56411;52.964;10.540;2023-04-24T14:06:22;2.63;;;2.30;;
16101;SDS011;56411;52.964;10.540;2023-04-24T14:08:50;2.40;;;2.20;;
16101;SDS011;56411;52.964;10.540;2023-04-24T14:11:17;3.58;;;2.40;;
16101;SDS011;56411;52.964;10.540;2023-04-24T14:13:44;3.60;;;2.20;;
16101;SDS011;56411;52.964;10.540;2023-04-24T14:16:12;2.83;;;2.17;;
16101;SDS011;56411;52.964;10.540;2023-04-24T14:18:40;3.58;;;2.40;;
16101;SDS011;56411;52.964;10.540;2023-04-24T14:21:07;4.10;;;2.50;;
16101;SDS011;56411;52.964;10.540;2023-04-24T14:23:34;4.93;;;2.60;;
16101;SDS011;56411;52.964;10.540;2023-04-24T14:26:02;3.43;;;2.50;;
16101;SDS011;56411;52.964;10.540;2023-04-24T14:28:29;3.63;;;2.30;;
16101;SDS011;56411;52.964;10.540;2023-04-24T14:30:56;3.33;;;2.10;;
16101;SDS011;56411;52.964;10.540;2023-04-24T14:33:23;2.07;;;1.80;;
16101;SDS011;56411;52.964;10.540;2023-04-24T14:35:51;3.60;;;1.80;;
16101;SDS011;56411;52.964;10.540;2023-04-24T14:38:18;1.90;;;1.70;;
16101;SDS011;56411;52.964;10.540;2023-04-24T14:40:45;1.80;;;1.70;;
16101;SDS011;56411;52.964;10.540;2023-04-24T14:43:13;2.10;;;1.70;;
16101;SDS011;56411;52.964;10.540;2023-04-24T14:45:40;2.20;;;1.70;;